Briefing drone pour Vif

Rechercher une autre localisation

Conditions de vol :


Nous sommes le : Jeudi 29 septembre 2022
Il est 00:38 UTC (02:38 LT)

Lever de soleil : 05:06 UTC (07:06 LT)
Coucher de soleil : 17:49 UTC (19:49 LT)

Météo

L'essentiel des conditions de vol

VIGILANCE MÉTÉO FRANCE - Isère (38)
Vigilance Jaune : Pluie-inondation
CARTE TEMSI
CARTES DES FRONTS
METAR de LFLS
LFLS 290030Z AUTO 29005KT 260V320 9999 BKN042/// OVC054/// ///TCU 13/11 Q1001

Date d'émission: 29/09/2022
Heure d'émission: 00:30 UTC
Vent: 290° (variable du 260° au 320°) pour 5 KT (9 km/h)
Visibilité horizontale: > 10 km
Plafond :
- Nuages morcelés à 4200ft (1280m)
- Couvert à 5400ft (1646m)
Température: 13 °C
Point de rosée: 11 °C
Humidité: 88%
Pression (QNH): 1001 hPa
TAF de LFLS
LFLS 281901Z 2819/2915 CNL

Conditions prévues :

Heure d'émission : Bulletin éffectué le 28 à 19:00 UTC
Prévision : Valide du 28 a 19:00 UTC au 29 a 15:00 UTC
Nuages : à 0ft (0 m)
WEBCAM POUR VIF

Réglementation

Voler en sécurité

CARTES AERONAUTIQUE 1/500.000
CARTE AZBA (Reseau basse altitude)
CARTES VAC (LFLS)
SUP AIP




Chargement des AIP...
NOTAM (VIF + Terrain à proximité / FIR )




Chargement des NOTAMS...
CONTACT PREFECTURE 38


Avertissement : Les données mises à disposition sont indicatives. Oxygène Drone ne pourra être tenu responsable de dégâts causés aux biens et aux personnes.